sensor_id;sensor_type;location;lat;lon;timestamp;pressure;altitude;pressure_sealevel;temperature;humidity
25238;BME280;13185;50.872;5.306;2023-03-20T00:01:46;101728.47;;;8.09;94.68
25238;BME280;13185;50.872;5.306;2023-03-20T00:04:13;101733.09;;;8.06;94.98
25238;BME280;13185;50.872;5.306;2023-03-20T00:06:39;101738.56;;;8.03;94.76
25238;BME280;13185;50.872;5.306;2023-03-20T00:09:04;101743.13;;;7.99;94.96
25238;BME280;13185;50.872;5.306;2023-03-20T00:11:32;101748.53;;;7.98;94.86
25238;BME280;13185;50.872;5.306;2023-03-20T00:14:05;101743.41;;;7.93;94.96
25238;BME280;13185;50.872;5.306;2023-03-20T00:16:42;101742.63;;;7.90;94.86
25238;BME280;13185;50.872;5.306;2023-03-20T00:19:27;101750.91;;;7.84;94.89
25238;BME280;13185;50.872;5.306;2023-03-20T00:21:57;101748.47;;;7.77;95.11
25238;BME280;13185;50.872;5.306;2023-03-20T00:24:23;101748.66;;;7.73;95.19
25238;BME280;13185;50.872;5.306;2023-03-20T00:26:49;101738.19;;;7.67;95.26
25238;BME280;13185;50.872;5.306;2023-03-20T00:29:20;101744.66;;;7.61;95.13
25238;BME280;13185;50.872;5.306;2023-03-20T00:31:47;101736.88;;;7.55;95.20
25238;BME280;13185;50.872;5.306;2023-03-20T00:34:15;101732.69;;;7.48;95.24
25238;BME280;13185;50.872;5.306;2023-03-20T00:36:44;101735.53;;;7.43;95.31
25238;BME280;13185;50.872;5.306;2023-03-20T00:39:10;101726.94;;;7.35;95.12
25238;BME280;13185;50.872;5.306;2023-03-20T00:41:55;101729.91;;;7.28;95.38
25238;BME280;13185;50.872;5.306;2023-03-20T00:44:35;101721.28;;;7.21;95.94
25238;BME280;13185;50.872;5.306;2023-03-20T00:47:21;101715.34;;;7.13;96.13
25238;BME280;13185;50.872;5.306;2023-03-20T00:49:49;101711.94;;;7.08;96.15
25238;BME280;13185;50.872;5.306;2023-03-20T00:52:17;101708.53;;;7.04;96.82
25238;BME280;13185;50.872;5.306;2023-03-20T00:54:42;101704.31;;;6.99;97.34
25238;BME280;13185;50.872;5.306;2023-03-20T00:57:14;101704.53;;;6.92;98.31
25238;BME280;13185;50.872;5.306;2023-03-20T01:00:06;101699.38;;;6.88;99.13
25238;BME280;13185;50.872;5.306;2023-03-20T01:02:32;101693.19;;;6.86;99.32
25238;BME280;13185;50.872;5.306;2023-03-20T01:04:59;101702.25;;;6.82;99.00
25238;BME280;13185;50.872;5.306;2023-03-20T01:07:25;101704.09;;;6.80;98.93
25238;BME280;13185;50.872;5.306;2023-03-20T01:09:51;101711.38;;;6.75;99.11
25238;BME280;13185;50.872;5.306;2023-03-20T01:12:18;101711.44;;;6.73;99.43
25238;BME280;13185;50.872;5.306;2023-03-20T01:14:44;101717.69;;;6.72;99.57
25238;BME280;13185;50.872;5.306;2023-03-20T01:17:17;101720.47;;;6.69;99.90
25238;BME280;13185;50.872;5.306;2023-03-20T01:19:43;101730.41;;;6.64;100.00
25238;BME280;13185;50.872;5.306;2023-03-20T01:22:09;101740.31;;;6.60;100.00
25238;BME280;13185;50.872;5.306;2023-03-20T01:24:34;101740.44;;;6.57;100.00
25238;BME280;13185;50.872;5.306;2023-03-20T01:27:00;101743.09;;;6.57;100.00
25238;BME280;13185;50.872;5.306;2023-03-20T01:29:28;101736.06;;;6.55;100.00
25238;BME280;13185;50.872;5.306;2023-03-20T01:31:55;101727.31;;;6.51;100.00
25238;BME280;13185;50.872;5.306;2023-03-20T01:34:23;101715.91;;;6.48;99.86
25238;BME280;13185;50.872;5.306;2023-03-20T01:36:52;101704.50;;;6.43;99.49
25238;BME280;13185;50.872;5.306;2023-03-20T01:39:29;101716.25;;;6.37;99.84
25238;BME280;13185;50.872;5.306;2023-03-20T01:41:56;101722.47;;;6.38;100.00
25238;BME280;13185;50.872;5.306;2023-03-20T01:44:30;101718.13;;;6.33;100.00
25238;BME280;13185;50.872;5.306;2023-03-20T01:46:58;101703.94;;;6.33;100.00
25238;BME280;13185;50.872;5.306;2023-03-20T01:51:54;101694.44;;;6.26;100.00
25238;BME280;13185;50.872;5.306;2023-03-20T01:54:35;101707.03;;;6.21;100.00
25238;BME280;13185;50.872;5.306;2023-03-20T01:57:15;101708.88;;;6.19;100.00
25238;BME280;13185;50.872;5.306;2023-03-20T01:59:47;101707.19;;;6.16;100.00
25238;BME280;13185;50.872;5.306;2023-03-20T02:02:18;101691.22;;;6.15;100.00
25238;BME280;13185;50.872;5.306;2023-03-20T02:04:46;101680.69;;;6.12;100.00
25238;BME280;13185;50.872;5.306;2023-03-20T02:07:17;101680.94;;;6.04;100.00
25238;BME280;13185;50.872;5.306;2023-03-20T02:09:57;101658.94;;;5.99;100.00
25238;BME280;13185;50.872;5.306;2023-03-20T02:12:37;101656.44;;;5.93;100.00
25238;BME280;13185;50.872;5.306;2023-03-20T02:15:06;101672.47;;;5.91;100.00
25238;BME280;13185;50.872;5.306;2023-03-20T02:17:51;101691.13;;;5.91;100.00
25238;BME280;13185;50.872;5.306;2023-03-20T02:20:27;101696.53;;;5.88;100.00
25238;BME280;13185;50.872;5.306;2023-03-20T02:48:00;101723.72;;;5.70;100.00
25238;BME280;13185;50.872;5.306;2023-03-20T02:50:50;101712.94;;;5.74;100.00
25238;BME280;13185;50.872;5.306;2023-03-20T02:56:25;101706.63;;;5.77;100.00
25238;BME280;13185;50.872;5.306;2023-03-20T03:02:13;101701.50;;;5.71;100.00
25238;BME280;13185;50.872;5.306;2023-03-20T03:04:56;101696.28;;;5.68;100.00
25238;BME280;13185;50.872;5.306;2023-03-20T03:07:25;101691.06;;;5.65;100.00
25238;BME280;13185;50.872;5.306;2023-03-20T03:09:56;101694.75;;;5.59;100.00
25238;BME280;13185;50.872;5.306;2023-03-20T03:12:36;101689.50;;;5.58;100.00
25238;BME280;13185;50.872;5.306;2023-03-20T03:15:06;101685.09;;;5.57;100.00
25238;BME280;13185;50.872;5.306;2023-03-20T03:17:36;101673.75;;;5.50;100.00
25238;BME280;13185;50.872;5.306;2023-03-20T03:20:11;101680.09;;;5.46;100.00
25238;BME280;13185;50.872;5.306;2023-03-20T03:22:40;101685.47;;;5.44;100.00
25238;BME280;13185;50.872;5.306;2023-03-20T03:25:08;101681.03;;;5.45;100.00
25238;BME280;13185;50.872;5.306;2023-03-20T03:27:40;101680.22;;;5.43;100.00
25238;BME280;13185;50.872;5.306;2023-03-20T03:30:16;101680.22;;;5.43;100.00
25238;BME280;13185;50.872;5.306;2023-03-20T03:33:08;101679.28;;;5.44;100.00
25238;BME280;13185;50.872;5.306;2023-03-20T03:35:37;101665.06;;;5.45;100.00
25238;BME280;13185;50.872;5.306;2023-03-20T03:38:39;101674.03;;;5.42;100.00
25238;BME280;13185;50.872;5.306;2023-03-20T03:41:35;101680.22;;;5.43;100.00
25238;BME280;13185;50.872;5.306;2023-03-20T03:47:01;101663.28;;;5.45;100.00
25238;BME280;13185;50.872;5.306;2023-03-20T03:49:30;101668.59;;;5.45;100.00
25238;BME280;13185;50.872;5.306;2023-03-20T03:52:01;101678.31;;;5.46;100.00
25238;BME280;13185;50.872;5.306;2023-03-20T03:57:24;101670.28;;;5.48;100.00
25238;BME280;13185;50.872;5.306;2023-03-20T03:59:54;101675.59;;;5.48;100.00
25238;BME280;13185;50.872;5.306;2023-03-20T04:02:21;101690.66;;;5.49;100.00
25238;BME280;13185;50.872;5.306;2023-03-20T04:04:50;101680.81;;;5.51;100.00
25238;BME280;13185;50.872;5.306;2023-03-20T04:07:16;101680.81;;;5.53;100.00
25238;BME280;13185;50.872;5.306;2023-03-20T04:09:42;101680.69;;;5.56;100.00
25238;BME280;13185;50.872;5.306;2023-03-20T04:14:58;101685.84;;;5.60;100.00
25238;BME280;13185;50.872;5.306;2023-03-20T04:17:26;101679.53;;;5.64;100.00
25238;BME280;13185;50.872;5.306;2023-03-20T04:19:51;101675.09;;;5.65;100.00
25238;BME280;13185;50.872;5.306;2023-03-20T04:22:17;101663.47;;;5.67;100.00
25238;BME280;13185;50.872;5.306;2023-03-20T04:24:43;101662.72;;;5.64;100.00
25238;BME280;13185;50.872;5.306;2023-03-20T04:27:09;101663.63;;;5.63;100.00
25238;BME280;13185;50.872;5.306;2023-03-20T04:29:37;101670.72;;;5.62;100.00
25238;BME280;13185;50.872;5.306;2023-03-20T04:32:22;101670.72;;;5.62;100.00
25238;BME280;13185;50.872;5.306;2023-03-20T04:35:16;101689.25;;;5.65;100.00
25238;BME280;13185;50.872;5.306;2023-03-20T04:37:46;101686.50;;;5.68;100.00
25238;BME280;13185;50.872;5.306;2023-03-20T04:40:13;101676.72;;;5.69;100.00
25238;BME280;13185;50.872;5.306;2023-03-20T04:42:41;101684.59;;;5.72;100.00
25238;BME280;13185;50.872;5.306;2023-03-20T04:45:07;101666.84;;;5.72;100.00
25238;BME280;13185;50.872;5.306;2023-03-20T04:47:36;101664.19;;;5.72;100.00
25238;BME280;13185;50.872;5.306;2023-03-20T04:50:02;101671.28;;;5.73;100.00
25238;BME280;13185;50.872;5.306;2023-03-20T04:52:29;101678.34;;;5.74;100.00
25238;BME280;13185;50.872;5.306;2023-03-20T04:54:55;101672.97;;;5.76;100.00
25238;BME280;13185;50.872;5.306;2023-03-20T04:57:20;101674.75;;;5.75;100.00
25238;BME280;13185;50.872;5.306;2023-03-20T04:59:46;101674.81;;;5.74;100.00
25238;BME280;13185;50.872;5.306;2023-03-20T05:02:11;101676.59;;;5.73;100.00
25238;BME280;13185;50.872;5.306;2023-03-20T05:04:41;101672.16;;;5.72;100.00
25238;BME280;13185;50.872;5.306;2023-03-20T05:07:07;101670.38;;;5.73;100.00
25238;BME280;13185;50.872;5.306;2023-03-20T05:09:41;101670.38;;;5.73;100.00
25238;BME280;13185;50.872;5.306;2023-03-20T05:12:08;101666.81;;;5.74;100.00
25238;BME280;13185;50.872;5.306;2023-03-20T05:14:40;101669.47;;;5.74;100.00
25238;BME280;13185;50.872;5.306;2023-03-20T05:17:22;101664.19;;;5.72;100.00
25238;BME280;13185;50.872;5.306;2023-03-20T05:20:12;101656.16;;;5.74;100.00
25238;BME280;13185;50.872;5.306;2023-03-20T05:23:01;101657.03;;;5.74;100.00
25238;BME280;13185;50.872;5.306;2023-03-20T05:25:53;101659.69;;;5.74;100.00
25238;BME280;13185;50.872;5.306;2023-03-20T05:28:37;101657.00;;;5.76;100.00
25238;BME280;13185;50.872;5.306;2023-03-20T05:31:26;101657.97;;;5.73;100.00
25238;BME280;13185;50.872;5.306;2023-03-20T05:34:18;101662.38;;;5.74;100.00
25238;BME280;13185;50.872;5.306;2023-03-20T05:36:58;101657.00;;;5.76;100.00
25238;BME280;13185;50.872;5.306;2023-03-20T05:39:44;101651.66;;;5.76;100.00
25238;BME280;13185;50.872;5.306;2023-03-20T05:42:44;101655.25;;;5.75;100.00
25238;BME280;13185;50.872;5.306;2023-03-20T05:45:26;101652.53;;;5.76;100.00
25238;BME280;13185;50.872;5.306;2023-03-20T05:48:07;101664.09;;;5.75;100.00
25238;BME280;13185;50.872;5.306;2023-03-20T05:50:46;101665.78;;;5.78;100.00
25238;BME280;13185;50.872;5.306;2023-03-20T05:53:29;101671.94;;;5.80;100.00
25238;BME280;13185;50.872;5.306;2023-03-20T05:56:12;101673.59;;;5.83;100.00
25238;BME280;13185;50.872;5.306;2023-03-20T05:58:48;101661.16;;;5.85;100.00
25238;BME280;13185;50.872;5.306;2023-03-20T06:01:36;101670.81;;;5.87;100.00
25238;BME280;13185;50.872;5.306;2023-03-20T06:04:24;101674.34;;;5.88;100.00
25238;BME280;13185;50.872;5.306;2023-03-20T06:07:16;101681.41;;;5.89;100.00
25238;BME280;13185;50.872;5.306;2023-03-20T06:09:47;101683.13;;;5.91;100.00
25238;BME280;13185;50.872;5.306;2023-03-20T06:12:13;101665.38;;;5.92;100.00
25238;BME280;13185;50.872;5.306;2023-03-20T06:14:39;101662.63;;;5.95;100.00
25238;BME280;13185;50.872;5.306;2023-03-20T06:17:06;101661.69;;;5.96;100.00
25238;BME280;13185;50.872;5.306;2023-03-20T06:19:33;101653.66;;;5.97;100.00
25238;BME280;13185;50.872;5.306;2023-03-20T06:21:58;101646.53;;;5.98;100.00
25238;BME280;13185;50.872;5.306;2023-03-20T06:24:24;101644.69;;;6.00;100.00
25238;BME280;13185;50.872;5.306;2023-03-20T06:26:50;101653.53;;;6.00;100.00
25238;BME280;13185;50.872;5.306;2023-03-20T06:29:15;101652.69;;;6.00;100.00
25238;BME280;13185;50.872;5.306;2023-03-20T06:31:42;101653.44;;;6.03;100.00
25238;BME280;13185;50.872;5.306;2023-03-20T06:34:13;101658.75;;;6.03;100.00
25238;BME280;13185;50.872;5.306;2023-03-20T06:36:43;101674.66;;;6.06;100.00
25238;BME280;13185;50.872;5.306;2023-03-20T06:39:15;101676.34;;;6.09;100.00
25238;BME280;13185;50.872;5.306;2023-03-20T06:41:41;101677.09;;;6.13;100.00
25238;BME280;13185;50.872;5.306;2023-03-20T06:44:08;101693.88;;;6.16;100.00
25238;BME280;13185;50.872;5.306;2023-03-20T06:46:52;101689.34;;;6.18;100.00
25238;BME280;13185;50.872;5.306;2023-03-20T06:49:18;101689.19;;;6.23;100.00
25238;BME280;13185;50.872;5.306;2023-03-20T06:51:44;101693.44;;;6.28;100.00
25238;BME280;13185;50.872;5.306;2023-03-20T06:54:14;101691.53;;;6.32;100.00
25238;BME280;13185;50.872;5.306;2023-03-20T06:56:40;101696.81;;;6.33;100.00
25238;BME280;13185;50.872;5.306;2023-03-20T06:59:06;101687.81;;;6.38;100.00
25238;BME280;13185;50.872;5.306;2023-03-20T07:01:32;101692.97;;;6.42;100.00
25238;BME280;13185;50.872;5.306;2023-03-20T07:03:57;101682.19;;;6.47;100.00
25238;BME280;13185;50.872;5.306;2023-03-20T07:06:29;101688.16;;;6.53;100.00
25238;BME280;13185;50.872;5.306;2023-03-20T07:08:54;101680.88;;;6.58;100.00
25238;BME280;13185;50.872;5.306;2023-03-20T07:11:21;101682.56;;;6.61;100.00
25238;BME280;13185;50.872;5.306;2023-03-20T07:13:47;101681.44;;;6.66;100.00
25238;BME280;13185;50.872;5.306;2023-03-20T07:16:33;101688.31;;;6.74;100.00
25238;BME280;13185;50.872;5.306;2023-03-20T07:18:58;101690.84;;;6.78;100.00
25238;BME280;13185;50.872;5.306;2023-03-20T07:21:24;101694.19;;;6.83;100.00
25238;BME280;13185;50.872;5.306;2023-03-20T07:23:51;101697.56;;;6.88;100.00
25238;BME280;13185;50.872;5.306;2023-03-20T07:26:17;101700.13;;;6.91;100.00
25238;BME280;13185;50.872;5.306;2023-03-20T07:28:43;101700.88;;;6.95;100.00
25238;BME280;13185;50.872;5.306;2023-03-20T07:31:24;101702.53;;;6.99;100.00
25238;BME280;13185;50.872;5.306;2023-03-20T07:33:59;101706.69;;;7.06;100.00
25238;BME280;13185;50.872;5.306;2023-03-20T07:36:25;101713.59;;;7.12;100.00
25238;BME280;13185;50.872;5.306;2023-03-20T07:38:50;101709.19;;;7.11;99.67
25238;BME280;13185;50.872;5.306;2023-03-20T07:41:17;101710.00;;;7.13;99.03
25238;BME280;13185;50.872;5.306;2023-03-20T07:43:52;101721.53;;;7.13;98.01
25238;BME280;13185;50.872;5.306;2023-03-20T07:46:44;101718.06;;;7.11;96.30
25238;BME280;13185;50.872;5.306;2023-03-20T07:49:15;101723.56;;;7.07;94.58
25238;BME280;13185;50.872;5.306;2023-03-20T07:51:46;101717.53;;;7.02;93.37
25238;BME280;13185;50.872;5.306;2023-03-20T07:54:12;101718.41;;;7.02;92.71
25238;BME280;13185;50.872;5.306;2023-03-20T07:56:37;101731.84;;;6.99;91.69
25238;BME280;13185;50.872;5.306;2023-03-20T07:59:03;101731.88;;;6.98;91.86
25238;BME280;13185;50.872;5.306;2023-03-20T08:01:29;101725.53;;;7.02;92.09
25238;BME280;13185;50.872;5.306;2023-03-20T08:03:54;101747.69;;;7.04;91.63
25238;BME280;13185;50.872;5.306;2023-03-20T08:06:20;101752.09;;;7.05;90.56
25238;BME280;13185;50.872;5.306;2023-03-20T08:08:45;101739.69;;;7.04;90.67
25238;BME280;13185;50.872;5.306;2023-03-20T08:11:11;101746.53;;;7.11;91.15
25238;BME280;13185;50.872;5.306;2023-03-20T08:13:37;101740.97;;;7.17;91.20
25238;BME280;13185;50.872;5.306;2023-03-20T08:16:03;101751.38;;;7.24;91.54
25238;BME280;13185;50.872;5.306;2023-03-20T08:18:29;101744.06;;;7.30;91.37
25238;BME280;13185;50.872;5.306;2023-03-20T08:20:54;101743.88;;;7.34;91.51
25238;BME280;13185;50.872;5.306;2023-03-20T08:23:20;101740.34;;;7.34;91.29
25238;BME280;13185;50.872;5.306;2023-03-20T08:25:50;101748.13;;;7.40;91.31
25238;BME280;13185;50.872;5.306;2023-03-20T08:28:16;101753.22;;;7.46;91.32
25238;BME280;13185;50.872;5.306;2023-03-20T08:30:42;101745.06;;;7.50;91.31
25238;BME280;13185;50.872;5.306;2023-03-20T08:33:08;101759.03;;;7.57;91.62
25238;BME280;13185;50.872;5.306;2023-03-20T08:35:34;101748.00;;;7.66;91.46
25238;BME280;13185;50.872;5.306;2023-03-20T08:38:00;101747.06;;;7.67;90.93
25238;BME280;13185;50.872;5.306;2023-03-20T08:40:26;101756.75;;;7.70;90.56
25238;BME280;13185;50.872;5.306;2023-03-20T08:42:51;101749.47;;;7.75;90.78
25238;BME280;13185;50.872;5.306;2023-03-20T08:45:17;101739.50;;;7.78;90.61
25238;BME280;13185;50.872;5.306;2023-03-20T08:47:46;101752.50;;;7.88;90.65
25238;BME280;13185;50.872;5.306;2023-03-20T08:50:13;101745.75;;;8.01;90.61
25238;BME280;13185;50.872;5.306;2023-03-20T08:52:39;101747.03;;;8.13;90.31
25238;BME280;13185;50.872;5.306;2023-03-20T08:55:12;101743.28;;;8.18;89.89
25238;BME280;13185;50.872;5.306;2023-03-20T08:57:39;101760.81;;;8.25;89.49
25238;BME280;13185;50.872;5.306;2023-03-20T09:00:06;101748.47;;;8.21;87.97
25238;BME280;13185;50.872;5.306;2023-03-20T09:02:32;101747.63;;;8.21;87.79
25238;BME280;13185;50.872;5.306;2023-03-20T09:04:57;101751.22;;;8.20;87.04
25238;BME280;13185;50.872;5.306;2023-03-20T09:07:23;101746.94;;;8.16;86.78
25238;BME280;13185;50.872;5.306;2023-03-20T09:09:48;101747.13;;;8.11;86.33
25238;BME280;13185;50.872;5.306;2023-03-20T09:12:14;101746.19;;;8.12;86.29
25238;BME280;13185;50.872;5.306;2023-03-20T09:14:40;101743.72;;;8.07;85.98
25238;BME280;13185;50.872;5.306;2023-03-20T09:17:06;101758.00;;;8.06;85.88
25238;BME280;13185;50.872;5.306;2023-03-20T09:19:32;101765.22;;;8.04;85.74
25238;BME280;13185;50.872;5.306;2023-03-20T09:21:58;101764.34;;;8.04;85.38
25238;BME280;13185;50.872;5.306;2023-03-20T09:24:24;101767.00;;;8.04;85.47
25238;BME280;13185;50.872;5.306;2023-03-20T09:26:49;101772.16;;;8.08;85.35
25238;BME280;13185;50.872;5.306;2023-03-20T09:29:15;101771.09;;;8.13;84.95
25238;BME280;13185;50.872;5.306;2023-03-20T09:31:41;101769.25;;;8.15;84.58
25238;BME280;13185;50.872;5.306;2023-03-20T09:34:06;101776.41;;;8.14;84.16
25238;BME280;13185;50.872;5.306;2023-03-20T09:36:32;101781.75;;;8.14;84.24
25238;BME280;13185;50.872;5.306;2023-03-20T09:38:58;101783.03;;;8.04;83.45
25238;BME280;13185;50.872;5.306;2023-03-20T09:41:24;101792.22;;;7.97;85.10
25238;BME280;13185;50.872;5.306;2023-03-20T09:44:11;101785.44;;;7.88;85.42
25238;BME280;13185;50.872;5.306;2023-03-20T09:52:19;101790.25;;;7.78;88.56
25238;BME280;13185;50.872;5.306;2023-03-20T09:55:12;101782.31;;;7.77;89.54
25238;BME280;13185;50.872;5.306;2023-03-20T09:57:57;101785.69;;;7.82;90.52
25238;BME280;13185;50.872;5.306;2023-03-20T10:00:28;101795.19;;;7.89;90.51
25238;BME280;13185;50.872;5.306;2023-03-20T10:03:00;101796.69;;;7.96;90.83
25238;BME280;13185;50.872;5.306;2023-03-20T10:07:59;101788.47;;;8.01;90.86
25238;BME280;13185;50.872;5.306;2023-03-20T10:10:50;101789.06;;;8.09;91.46
25238;BME280;13185;50.872;5.306;2023-03-20T10:13:46;101785.22;;;8.16;91.47
25238;BME280;13185;50.872;5.306;2023-03-20T10:21:38;101771.72;;;8.19;90.98
25238;BME280;13185;50.872;5.306;2023-03-20T10:24:27;101781.47;;;8.20;90.69
25238;BME280;13185;50.872;5.306;2023-03-20T10:26:57;101767.44;;;8.15;89.77
25238;BME280;13185;50.872;5.306;2023-03-20T10:29:37;101769.19;;;8.16;89.54
25238;BME280;13185;50.872;5.306;2023-03-20T10:32:08;101755.41;;;8.27;89.79
25238;BME280;13185;50.872;5.306;2023-03-20T10:34:52;101753.13;;;8.39;89.78
25238;BME280;13185;50.872;5.306;2023-03-20T10:42:50;101738.84;;;8.61;89.05
25238;BME280;13185;50.872;5.306;2023-03-20T10:47:43;101734.75;;;8.73;89.65
25238;BME280;13185;50.872;5.306;2023-03-20T10:50:22;101731.97;;;8.76;89.79
25238;BME280;13185;50.872;5.306;2023-03-20T10:52:54;101731.63;;;8.83;89.53
25238;BME280;13185;50.872;5.306;2023-03-20T10:55:23;101734.19;;;8.86;88.40
25238;BME280;13185;50.872;5.306;2023-03-20T10:57:56;101727.59;;;8.93;88.18
25238;BME280;13185;50.872;5.306;2023-03-20T11:00:25;101718.31;;;9.02;88.32
25238;BME280;13185;50.872;5.306;2023-03-20T11:02:51;101719.09;;;9.04;87.97
25238;BME280;13185;50.872;5.306;2023-03-20T11:07:49;101715.16;;;9.13;87.86
25238;BME280;13185;50.872;5.306;2023-03-20T11:10:16;101716.31;;;9.26;87.91
25238;BME280;13185;50.872;5.306;2023-03-20T11:12:44;101707.25;;;9.30;86.98
25238;BME280;13185;50.872;5.306;2023-03-20T11:15:30;101708.75;;;9.36;86.15
25238;BME280;13185;50.872;5.306;2023-03-20T11:18:03;101694.78;;;9.48;85.13
25238;BME280;13185;50.872;5.306;2023-03-20T11:20:35;101689.88;;;9.58;85.01
25238;BME280;13185;50.872;5.306;2023-03-20T11:23:04;101686.22;;;9.77;85.86
25238;BME280;13185;50.872;5.306;2023-03-20T11:25:36;101682.41;;;9.83;84.17
25238;BME280;13185;50.872;5.306;2023-03-20T11:31:37;101681.72;;;9.97;83.16
25238;BME280;13185;50.872;5.306;2023-03-20T11:36:33;101661.47;;;10.08;82.49
25238;BME280;13185;50.872;5.306;2023-03-20T11:39:13;101651.00;;;10.21;80.95
25238;BME280;13185;50.872;5.306;2023-03-20T11:41:46;101657.75;;;10.30;81.61
25238;BME280;13185;50.872;5.306;2023-03-20T11:47:10;101663.03;;;10.49;79.65
25238;BME280;13185;50.872;5.306;2023-03-20T11:49:56;101649.84;;;10.61;79.97
25238;BME280;13185;50.872;5.306;2023-03-20T11:52:40;101638.81;;;10.67;79.26
25238;BME280;13185;50.872;5.306;2023-03-20T11:55:39;101641.66;;;10.64;78.56
25238;BME280;13185;50.872;5.306;2023-03-20T11:58:05;101647.13;;;10.63;78.06
25238;BME280;13185;50.872;5.306;2023-03-20T12:00:38;101650.41;;;10.68;78.60
25238;BME280;13185;50.872;5.306;2023-03-20T12:06:17;101653.06;;;10.85;79.04
25238;BME280;13185;50.872;5.306;2023-03-20T12:08:50;101657.78;;;10.97;78.29
25238;BME280;13185;50.872;5.306;2023-03-20T12:11:37;101649.09;;;10.92;76.92
25238;BME280;13185;50.872;5.306;2023-03-20T12:14:11;101652.72;;;10.91;77.18
25238;BME280;13185;50.872;5.306;2023-03-20T12:16:39;101654.47;;;10.92;76.80
25238;BME280;13185;50.872;5.306;2023-03-20T12:19:14;101646.50;;;10.91;75.34
25238;BME280;13185;50.872;5.306;2023-03-20T12:21:47;101641.31;;;10.88;75.84
25238;BME280;13185;50.872;5.306;2023-03-20T12:26:55;101638.78;;;10.85;75.75
25238;BME280;13185;50.872;5.306;2023-03-20T12:29:25;101650.69;;;10.96;76.28
25238;BME280;13185;50.872;5.306;2023-03-20T12:32:01;101634.16;;;11.04;76.04
25238;BME280;13185;50.872;5.306;2023-03-20T12:34:34;101638.66;;;11.04;75.14
25238;BME280;13185;50.872;5.306;2023-03-20T12:37:02;101641.59;;;10.99;74.57
25238;BME280;13185;50.872;5.306;2023-03-20T12:39:33;101636.06;;;11.02;74.37
25238;BME280;13185;50.872;5.306;2023-03-20T12:50:02;101623.13;;;10.93;74.42
25238;BME280;13185;50.872;5.306;2023-03-20T12:55:37;101628.00;;;11.02;73.70
25238;BME280;13185;50.872;5.306;2023-03-20T12:58:21;101617.84;;;10.91;73.03
25238;BME280;13185;50.872;5.306;2023-03-20T13:17:04;101590.88;;;11.10;72.73
25238;BME280;13185;50.872;5.306;2023-03-20T13:22:28;101593.22;;;11.48;72.99
25238;BME280;13185;50.872;5.306;2023-03-20T13:27:49;101585.00;;;11.51;71.29
25238;BME280;13185;50.872;5.306;2023-03-20T13:35:46;101581.06;;;11.56;72.75
25238;BME280;13185;50.872;5.306;2023-03-20T13:38:18;101581.88;;;11.43;70.32
25238;BME280;13185;50.872;5.306;2023-03-20T13:40:46;101578.50;;;11.39;71.00
25238;BME280;13185;50.872;5.306;2023-03-20T13:48:42;101575.31;;;11.48;71.16
25238;BME280;13185;50.872;5.306;2023-03-20T13:51:20;101576.88;;;11.37;70.76
25238;BME280;13185;50.872;5.306;2023-03-20T13:54:11;101580.66;;;11.33;71.31
25238;BME280;13185;50.872;5.306;2023-03-20T13:57:04;101581.38;;;11.36;71.98
25238;BME280;13185;50.872;5.306;2023-03-20T14:02:36;101570.69;;;11.35;72.42
25238;BME280;13185;50.872;5.306;2023-03-20T14:05:21;101570.19;;;11.28;72.11
25238;BME280;13185;50.872;5.306;2023-03-20T14:07:49;101561.94;;;11.31;72.47
25238;BME280;13185;50.872;5.306;2023-03-20T14:13:00;101566.13;;;11.37;72.85
25238;BME280;13185;50.872;5.306;2023-03-20T14:15:30;101565.56;;;11.46;72.75
25238;BME280;13185;50.872;5.306;2023-03-20T14:18:03;101563.06;;;11.59;73.06
25238;BME280;13185;50.872;5.306;2023-03-20T14:20:38;101556.66;;;11.61;72.59
25238;BME280;13185;50.872;5.306;2023-03-20T14:23:05;101553.69;;;11.66;71.86
25238;BME280;13185;50.872;5.306;2023-03-20T14:25:35;101553.63;;;11.67;71.35
25238;BME280;13185;50.872;5.306;2023-03-20T14:30:45;101535.56;;;11.69;71.73
25238;BME280;13185;50.872;5.306;2023-03-20T14:35:42;101527.22;;;11.74;70.63
25238;BME280;13185;50.872;5.306;2023-03-20T14:49:36;101538.59;;;11.63;69.56
25238;BME280;13185;50.872;5.306;2023-03-20T14:54:39;101526.81;;;11.66;70.15
25238;BME280;13185;50.872;5.306;2023-03-20T14:57:16;101534.81;;;11.67;69.91
25238;BME280;13185;50.872;5.306;2023-03-20T14:59:43;101527.88;;;11.63;70.11
25238;BME280;13185;50.872;5.306;2023-03-20T15:02:24;101533.41;;;11.60;69.96
25238;BME280;13185;50.872;5.306;2023-03-20T15:04:50;101520.84;;;11.61;70.09
25238;BME280;13185;50.872;5.306;2023-03-20T15:07:25;101522.41;;;11.65;70.43
25238;BME280;13185;50.872;5.306;2023-03-20T15:09:57;101518.84;;;11.64;70.29
25238;BME280;13185;50.872;5.306;2023-03-20T15:12:27;101517.03;;;11.65;70.75
25238;BME280;13185;50.872;5.306;2023-03-20T15:15:02;101518.94;;;11.63;70.27
25238;BME280;13185;50.872;5.306;2023-03-20T15:17:40;101520.25;;;11.55;69.88
25238;BME280;13185;50.872;5.306;2023-03-20T15:20:19;101515.50;;;11.45;69.91
25238;BME280;13185;50.872;5.306;2023-03-20T15:22:50;101524.78;;;11.39;70.16
25238;BME280;13185;50.872;5.306;2023-03-20T15:25:18;101519.75;;;11.33;69.76
25238;BME280;13185;50.872;5.306;2023-03-20T15:27:44;101512.84;;;11.29;69.56
25238;BME280;13185;50.872;5.306;2023-03-20T15:30:14;101510.06;;;11.31;70.38
25238;BME280;13185;50.872;5.306;2023-03-20T15:32:41;101500.28;;;11.30;70.54
25238;BME280;13185;50.872;5.306;2023-03-20T15:35:13;101495.50;;;11.35;70.35
25238;BME280;13185;50.872;5.306;2023-03-20T15:37:42;101503.50;;;11.36;70.21
25238;BME280;13185;50.872;5.306;2023-03-20T15:40:31;101504.16;;;11.40;70.41
25238;BME280;13185;50.872;5.306;2023-03-20T15:45:33;101503.06;;;11.28;70.99
25238;BME280;13185;50.872;5.306;2023-03-20T15:48:08;101500.47;;;11.26;71.48
25238;BME280;13185;50.872;5.306;2023-03-20T15:50:36;101501.34;;;11.27;71.85